Time;durP1;ratioP1;P1;durP2;ratioP2;P2;SDS_P1;SDS_P2;PMS_P1;PMS_P2;Temp;Humidity;BMP_temperature;BMP_pressure;BME280_temperature;BME280_humidity;BME280_pressure;Samples;Min_cycle;Max_cycle;Signal;HPM_P1;HPM_P2
2022/12/28 00:02:42;;;;;;;8.27;6.47;;;;;;;6.94;58.05;99606.16;7114869;27;20283;-76
2022/12/28 00:06:05;;;;;;;10.53;7.67;;;;;;;5.99;57.84;99539.56;7114842;27;20298;-76
2022/12/28 00:09:27;;;;;;;12.00;8.23;;;;;;;6.13;59.19;99617.47;7114890;27;20215;-76
2022/12/28 00:12:48;;;;;;;13.27;8.53;;;;;;;5.93;59.22;99620.50;7111940;27;20783;-76
2022/12/28 00:16:12;;;;;;;11.80;8.60;;;;;;;5.80;60.36;99602.19;7114869;27;20257;-78
2022/12/28 00:19:35;;;;;;;11.07;8.07;;;;;;;6.07;60.82;99598.53;7114585;27;20223;-76
2022/12/28 00:22:57;;;;;;;10.80;8.10;;;;;;;5.76;61.21;99582.03;7115139;27;20295;-77
2022/12/28 00:26:19;;;;;;;9.67;7.77;;;;;;;6.10;59.86;99566.06;7113715;27;20230;-76
2022/12/28 00:29:40;;;;;;;13.60;9.13;;;;;;;6.65;59.01;99591.44;7114278;27;20367;-77
2022/12/28 00:33:02;;;;;;;13.80;8.53;;;;;;;6.16;60.19;99558.25;7114392;27;20609;-76
2022/12/28 00:36:25;;;;;;;9.40;7.17;;;;;;;6.75;59.52;99582.28;7113084;27;20295;-76
2022/12/28 00:39:46;;;;;;;10.93;7.40;;;;;;;6.46;58.52;99508.66;7112604;27;21346;-76
2022/12/28 00:43:08;;;;;;;11.90;7.83;;;;;;;6.48;59.44;99587.03;7114362;27;20548;-77
2022/12/28 00:46:29;;;;;;;9.17;8.23;;;;;;;6.39;59.18;99575.44;7113029;27;20368;-75
2022/12/28 00:49:51;;;;;;;10.93;8.20;;;;;;;6.35;59.96;99568.72;7113646;27;20233;-76
2022/12/28 00:53:14;;;;;;;11.07;7.90;;;;;;;6.00;59.36;99477.00;7113874;27;20211;-75
2022/12/28 00:56:35;;;;;;;12.70;7.27;;;;;;;6.62;59.06;99559.63;7112811;27;20200;-75
2022/12/28 00:59:57;;;;;;;10.23;7.47;;;;;;;6.17;59.44;99548.38;7113529;27;20249;-76
2022/12/28 01:03:19;;;;;;;9.77;7.80;;;;;;;6.39;59.41;99534.44;7113114;27;20212;-76
2022/12/28 01:06:40;;;;;;;11.73;7.60;;;;;;;6.89;58.34;99565.56;7111879;27;20231;-76
2022/12/28 01:10:04;;;;;;;13.03;8.17;;;;;;;6.23;59.47;99534.34;7112930;27;20316;-75
2022/12/28 01:13:25;;;;;;;13.60;8.50;;;;;;;5.81;60.53;99496.81;7113125;27;20201;-76
2022/12/28 01:16:47;;;;;;;12.83;7.97;;;;;;;5.88;60.35;99529.97;7113007;27;20287;-75
2022/12/28 01:20:09;;;;;;;12.27;7.27;;;;;;;5.57;61.40;99507.34;7114219;27;20218;-75
2022/12/28 01:23:30;;;;;;;11.93;8.77;;;;;;;6.08;60.43;99533.28;7113227;27;20418;-76
2022/12/28 01:26:53;;;;;;;14.10;7.60;;;;;;;6.20;60.66;99524.78;7112665;27;20243;-76
2022/12/28 01:30:15;;;;;;;12.20;7.60;;;;;;;6.54;59.62;99512.22;7108192;27;20234;-76
2022/12/28 01:33:37;;;;;;;10.60;7.60;;;;;;;6.67;59.26;99511.75;7112031;27;20291;-76
2022/12/28 01:36:58;;;;;;;7.83;6.73;;;;;;;6.39;60.33;99511.16;7112543;27;20341;-76
2022/12/28 01:40:20;;;;;;;10.27;7.80;;;;;;;6.19;60.06;99500.88;7111435;27;20454;-76
2022/12/28 01:43:45;;;;;;;9.63;7.20;;;;;;;6.17;60.34;99476.09;7113077;27;20622;-76
2022/12/28 01:47:12;;;;;;;9.57;7.43;;;;;;;6.44;59.70;99508.84;7112665;27;20245;-76
2022/12/28 01:50:34;;;;;;;8.17;6.63;;;;;;;5.78;62.16;99499.78;7093788;27;20351;-76
2022/12/28 01:53:58;;;;;;;11.40;6.73;;;;;;;5.96;60.97;99471.13;7084938;27;20206;-77
2022/12/28 01:57:21;;;;;;;6.63;5.13;;;;;;;6.55;61.07;99500.50;7084675;27;20723;-75
2022/12/28 02:00:44;;;;;;;6.70;5.70;;;;;;;6.94;58.89;99498.91;7088997;27;20250;-76
2022/12/28 02:04:06;;;;;;;10.13;6.10;;;;;;;6.85;58.57;99459.69;7089238;27;20277;-78
2022/12/28 02:07:36;;;;;;;6.70;5.83;;;;;;;6.66;59.41;99432.38;7088442;27;20205;-75
2022/12/28 02:10:58;;;;;;;6.40;5.80;;;;;;;6.71;59.42;99472.94;7089449;27;20307;-75
2022/12/28 02:14:20;;;;;;;8.30;6.67;;;;;;;6.70;59.23;99453.31;7089137;27;20295;-75
2022/12/28 02:17:43;;;;;;;11.10;7.03;;;;;;;6.78;58.84;99460.53;7088581;27;20608;-75
2022/12/28 02:21:19;;;;;;;8.33;6.10;;;;;;;7.24;58.53;99447.31;7088845;27;20227;-76
2022/12/28 02:24:54;;;;;;;8.20;5.83;;;;;;;7.01;58.53;99451.66;7088700;27;20274;-76
2022/12/28 02:28:32;;;;;;;7.33;6.17;;;;;;;7.06;58.41;99449.34;7088763;27;20557;-76
2022/12/28 02:32:01;;;;;;;7.30;5.83;;;;;;;6.37;59.90;99440.84;7088795;27;20218;-76
2022/12/28 02:35:29;;;;;;;7.80;6.33;;;;;;;6.57;60.89;99428.00;7087910;27;20190;-76
2022/12/28 02:38:54;;;;;;;9.13;5.80;;;;;;;7.48;59.25;99433.06;7088368;27;20194;-76
2022/12/28 02:42:17;;;;;;;7.37;5.47;;;;;;;7.52;58.46;99435.22;7087787;27;20229;-75
2022/12/28 02:53:28;;;;;;;6.77;5.30;;;;;;;7.05;59.12;99410.13;7087983;27;20190;-76
2022/12/28 02:56:52;;;;;;;6.13;5.20;;;;;;;6.83;60.54;99405.44;7073599;27;20638;-76
2022/12/28 03:00:16;;;;;;;5.47;4.97;;;;;;;7.77;58.59;99401.94;7088593;27;20256;-76
2022/12/28 03:03:43;;;;;;;6.30;4.43;;;;;;;7.99;57.27;99392.28;7088116;27;20345;-76
2022/12/28 03:10:52;;;;;;;7.00;4.47;;;;;;;8.00;57.27;99378.69;7087903;27;20225;-76
2022/12/28 03:14:18;;;;;;;4.57;4.10;;;;;;;8.31;56.75;99373.38;7088369;27;20394;-76
2022/12/28 03:32:22;;;;;;;5.30;4.60;;;;;;;8.14;56.81;99358.31;7087319;27;20186;-77
2022/12/28 03:35:49;;;;;;;7.17;5.27;;;;;;;8.28;56.36;99361.13;7086400;27;20243;-76
2022/12/28 03:39:15;;;;;;;6.53;4.40;;;;;;;8.20;57.02;99336.97;7087853;27;20213;-76
2022/12/28 03:46:22;;;;;;;7.37;4.50;;;;;;;8.27;56.83;99353.22;7094217;27;20246;-76
2022/12/28 03:49:44;;;;;;;9.17;4.40;;;;;;;8.25;56.62;99355.28;7094375;27;20219;-76
2022/12/28 03:53:05;;;;;;;8.47;4.13;;;;;;;7.78;57.84;99349.09;7121920;27;20285;-76
2022/12/28 03:56:29;;;;;;;6.00;5.30;;;;;;;8.35;55.87;99310.19;7114622;27;20787;-76
2022/12/28 03:59:51;;;;;;;6.13;4.90;;;;;;;8.24;55.70;99327.56;7114979;27;20224;-77
2022/12/28 04:03:13;;;;;;;5.90;5.27;;;;;;;7.87;56.58;99337.31;7114625;27;20279;-76
2022/12/28 04:06:35;;;;;;;7.10;5.80;;;;;;;7.99;57.12;99322.47;7114724;27;20225;-76
2022/12/28 04:09:56;;;;;;;5.80;4.40;;;;;;;8.01;57.71;99329.34;7120902;27;20282;-76
2022/12/28 04:13:18;;;;;;;5.30;4.80;;;;;;;7.85;58.29;99320.53;7122642;27;20296;-76
2022/12/28 04:16:41;;;;;;;4.90;4.40;;;;;;;8.22;56.92;99315.31;7121380;27;20264;-77
2022/12/28 04:20:02;;;;;;;6.13;4.57;;;;;;;8.26;57.26;99316.66;7116939;27;20322;-77
2022/12/28 04:23:24;;;;;;;3.13;2.83;;;;;;;8.60;56.38;99292.88;7114581;27;20273;-77
2022/12/28 04:26:46;;;;;;;3.00;2.80;;;;;;;9.02;55.18;99306.59;7113607;27;20265;-77
2022/12/28 04:30:08;;;;;;;3.33;3.03;;;;;;;9.42;53.73;99299.78;7114568;27;20279;-77
2022/12/28 04:33:33;;;;;;;3.10;2.80;;;;;;;9.81;52.69;99310.25;7114816;27;20211;-77
2022/12/28 04:36:55;;;;;;;3.47;3.00;;;;;;;9.96;51.98;99289.47;7113954;27;20190;-77
2022/12/28 04:40:16;;;;;;;3.50;3.20;;;;;;;9.86;52.49;99270.94;7112800;27;20365;-77
2022/12/28 04:43:39;;;;;;;3.10;2.70;;;;;;;9.79;51.49;99247.63;7113630;27;20753;-77
2022/12/28 04:47:00;;;;;;;5.10;3.47;;;;;;;10.12;51.27;99265.91;7114448;27;20222;-77
2022/12/28 04:50:23;;;;;;;3.80;3.40;;;;;;;10.10;51.19;99267.94;7118088;27;20280;-78
2022/12/28 04:53:44;;;;;;;3.90;3.17;;;;;;;9.84;52.87;99266.75;7114372;27;20247;-78
2022/12/28 04:57:06;;;;;;;4.77;3.57;;;;;;;9.97;52.50;99283.06;7114253;27;20207;-79
2022/12/28 05:00:28;;;;;;;3.83;2.90;;;;;;;10.12;51.63;99270.44;7116615;27;20230;-79
2022/12/28 05:03:49;;;;;;;3.97;3.17;;;;;;;10.09;51.46;99270.84;7115388;27;20282;-82
2022/12/28 05:07:12;;;;;;;2.90;2.57;;;;;;;10.17;51.55;99268.00;7114876;27;20317;-79
2022/12/28 05:10:34;;;;;;;4.50;3.30;;;;;;;10.30;50.51;99268.13;7113512;27;20231;-81
2022/12/28 05:13:56;;;;;;;4.13;3.60;;;;;;;10.21;51.26;99272.81;7113348;27;20226;-78
2022/12/28 05:17:17;;;;;;;3.60;2.90;;;;;;;9.93;51.16;99242.22;7108051;27;20611;-78
2022/12/28 05:20:38;;;;;;;5.70;3.57;;;;;;;10.05;51.91;99266.84;7112378;27;20218;-78
2022/12/28 05:24:01;;;;;;;8.17;5.40;;;;;;;9.86;52.12;99260.16;7106098;27;20202;-77
2022/12/28 05:27:23;;;;;;;2.67;2.47;;;;;;;9.69;51.78;99217.50;7111754;27;20318;-77
2022/12/28 05:30:44;;;;;;;4.60;2.97;;;;;;;10.27;51.25;99273.94;7112325;27;20644;-77
2022/12/28 05:34:06;;;;;;;4.93;3.30;;;;;;;10.74;50.11;99282.25;7116486;27;20348;-77
2022/12/28 05:37:27;;;;;;;4.20;2.80;;;;;;;10.61;49.97;99274.03;7117669;27;20261;-77
2022/12/28 05:40:50;;;;;;;2.53;2.33;;;;;;;10.42;50.20;99270.13;7117430;27;20703;-77
2022/12/28 05:44:12;;;;;;;2.57;2.37;;;;;;;10.20;51.13;99268.47;7118312;27;20623;-77
2022/12/28 05:47:33;;;;;;;3.00;2.20;;;;;;;10.66;50.35;99266.19;7117207;27;20290;-78
2022/12/28 05:50:58;;;;;;;2.53;2.33;;;;;;;10.96;49.45;99260.44;7114742;27;20225;-78
2022/12/28 05:54:22;;;;;;;2.70;2.50;;;;;;;10.96;49.37;99270.38;7105921;27;20780;-78
2022/12/28 05:57:46;;;;;;;3.13;2.60;;;;;;;10.68;50.10;99267.66;7117250;27;20203;-77
2022/12/28 06:01:09;;;;;;;4.63;2.33;;;;;;;10.81;49.83;99262.38;7117761;27;20253;-78
2022/12/28 06:04:30;;;;;;;2.63;2.40;;;;;;;10.23;51.07;99256.47;7117585;27;20227;-77
2022/12/28 06:07:52;;;;;;;2.73;2.53;;;;;;;10.61;50.74;99261.41;7113762;27;20227;-77
2022/12/28 06:11:15;;;;;;;4.23;2.17;;;;;;;10.63;50.03;99223.47;7106733;27;20622;-77
2022/12/28 06:14:38;;;;;;;4.27;1.90;;;;;;;10.75;50.09;99248.84;7087578;27;20340;-77
2022/12/28 06:18:00;;;;;;;3.20;2.33;;;;;;;10.95;50.01;99245.28;7095462;27;20707;-77
2022/12/28 06:21:22;;;;;;;2.50;2.30;;;;;;;10.97;49.90;99243.22;7114203;27;20222;-77
2022/12/28 06:24:44;;;;;;;2.33;2.13;;;;;;;10.76;50.46;99239.72;7115897;27;20214;-77
2022/12/28 06:28:05;;;;;;;2.50;2.00;;;;;;;10.71;50.95;99244.88;7091624;27;20691;-77
2022/12/28 06:31:30;;;;;;;3.60;2.30;;;;;;;10.46;51.09;99220.19;7085189;27;20715;-77
2022/12/28 06:34:52;;;;;;;2.27;2.10;;;;;;;10.55;51.20;99213.63;7086075;27;20226;-77
2022/12/28 06:38:13;;;;;;;2.30;2.20;;;;;;;10.92;49.95;99240.25;7086054;27;20290;-77
2022/12/28 06:41:35;;;;;;;2.83;2.17;;;;;;;10.78;50.30;99235.81;7085644;27;20716;-77
2022/12/28 06:44:56;;;;;;;3.47;2.33;;;;;;;10.85;50.45;99241.25;7102923;27;20203;-77
2022/12/28 06:48:19;;;;;;;3.23;2.53;;;;;;;10.68;50.57;99235.31;7114038;27;20694;-77
2022/12/28 06:51:41;;;;;;;2.93;2.73;;;;;;;11.01;49.78;99222.06;7107997;27;20367;-77
2022/12/28 06:55:02;;;;;;;2.10;2.00;;;;;;;11.04;49.60;99236.00;7106080;27;20266;-77
2022/12/28 06:58:24;;;;;;;2.43;2.10;;;;;;;10.82;49.88;99225.47;7088075;27;20642;-80
2022/12/28 07:01:46;;;;;;;6.63;2.53;;;;;;;11.14;49.39;99230.22;7108366;27;20309;-79
2022/12/28 07:05:09;;;;;;;3.17;2.40;;;;;;;11.01;49.67;99206.72;7104929;27;20294;-79
2022/12/28 07:08:31;;;;;;;3.00;2.70;;;;;;;11.10;49.62;99215.50;7117801;27;20669;-79
2022/12/28 07:11:52;;;;;;;6.27;3.30;;;;;;;10.90;49.95;99219.91;7116251;27;20884;-79
2022/12/28 07:15:14;;;;;;;2.87;2.57;;;;;;;10.78;50.54;99214.25;7115662;27;20350;-79
2022/12/28 07:18:36;;;;;;;3.40;3.00;;;;;;;10.70;50.65;99227.03;7109007;27;20295;-81
2022/12/28 07:21:59;;;;;;;4.57;3.00;;;;;;;10.24;51.23;99159.25;7124123;27;20229;-80
2022/12/28 07:25:21;;;;;;;3.37;3.07;;;;;;;10.52;51.08;99184.34;7117708;27;20191;-82
2022/12/28 07:31:47;;;;;;;2.90;2.70;;;;;;;10.48;51.84;99201.13;7088209;27;20558;-81
2022/12/28 07:35:09;;;;;;;2.90;2.70;;;;;;;10.53;51.29;99204.06;7085350;27;20210;-81
2022/12/28 07:38:31;;;;;;;3.27;2.60;;;;;;;10.28;51.42;99165.91;7082331;27;20258;-76
2022/12/28 07:41:53;;;;;;;4.00;3.60;;;;;;;10.31;52.09;99205.97;7062151;27;20353;-81
2022/12/28 07:45:14;;;;;;;4.77;3.33;;;;;;;10.40;51.69;99199.41;7054953;28;20231;-81
2022/12/28 07:48:38;;;;;;;3.83;2.83;;;;;;;10.43;51.64;99204.41;7065991;27;20343;-81
2022/12/28 07:52:00;;;;;;;4.00;2.70;;;;;;;10.48;51.50;99204.66;7104422;27;20224;-80
2022/12/28 07:55:42;;;;;;;3.70;2.97;;;;;;;10.60;51.62;99191.47;7076900;28;20228;-83
2022/12/28 07:59:06;;;;;;;2.90;2.70;;;;;;;10.76;50.97;99194.72;7080952;28;20208;-84
2022/12/28 08:02:27;;;;;;;4.27;2.90;;;;;;;10.88;50.41;99195.00;7089439;27;20211;-84
2022/12/28 08:06:05;;;;;;;5.40;3.30;;;;;;;10.92;50.39;99198.97;7085249;27;20340;-82
2022/12/28 08:09:26;;;;;;;5.33;3.00;;;;;;;10.87;50.28;99190.66;7086350;27;20224;-78
2022/12/28 08:12:48;;;;;;;3.13;2.87;;;;;;;10.80;50.99;99193.28;7076462;27;20333;-79
2022/12/28 08:16:10;;;;;;;4.67;2.90;;;;;;;11.05;49.94;99181.00;7068879;27;20279;-77
2022/12/28 08:19:32;;;;;;;3.40;3.10;;;;;;;11.01;50.31;99184.28;7061247;28;20366;-77
2022/12/28 08:22:55;;;;;;;3.87;2.67;;;;;;;10.66;51.19;99164.56;7083860;27;20228;-79
2022/12/28 08:26:18;;;;;;;3.57;2.60;;;;;;;10.93;50.85;99173.66;7056911;28;20264;-78
2022/12/28 08:29:39;;;;;;;6.43;2.60;;;;;;;10.90;51.26;99174.06;7072117;28;20228;-80
2022/12/28 08:33:01;;;;;;;6.13;2.93;;;;;;;11.13;50.93;99163.81;7080683;27;20212;-77
2022/12/28 08:36:23;;;;;;;3.17;2.87;;;;;;;11.07;51.11;99162.75;7079931;27;20245;-76
2022/12/28 08:39:46;;;;;;;3.43;3.13;;;;;;;11.23;50.62;99164.28;7064778;27;20269;-77
2022/12/28 08:43:07;;;;;;;3.30;3.00;;;;;;;11.18;50.92;99162.19;7033703;28;20217;-77
2022/12/28 08:46:30;;;;;;;3.10;2.80;;;;;;;10.88;51.83;99151.84;7036933;28;20645;-79
2022/12/28 08:49:51;;;;;;;5.73;3.90;;;;;;;11.05;51.34;99153.19;7041394;28;20284;-80
2022/12/28 08:53:13;;;;;;;4.83;3.60;;;;;;;10.90;51.04;99093.97;7047077;28;20323;-80
2022/12/28 08:56:37;;;;;;;4.00;3.13;;;;;;;11.54;50.04;99135.75;7051484;28;20211;-80
2022/12/28 08:59:59;;;;;;;3.27;2.60;;;;;;;11.46;49.88;99137.81;7061578;28;20594;-78
2022/12/28 09:03:20;;;;;;;3.20;2.63;;;;;;;11.30;50.67;99157.03;7060649;28;20227;-78
2022/12/28 09:06:52;;;;;;;3.53;3.23;;;;;;;11.26;50.72;99150.38;7032330;28;20208;-76
2022/12/28 09:10:13;;;;;;;3.20;2.90;;;;;;;11.46;50.67;99154.81;7035831;28;20251;-79
2022/12/28 09:13:37;;;;;;;2.93;2.73;;;;;;;11.47;50.00;99134.06;7041550;28;20272;-79
2022/12/28 09:17:00;;;;;;;4.50;2.87;;;;;;;11.50;49.81;99147.13;7047220;28;20287;-77
2022/12/28 09:20:21;;;;;;;3.40;2.93;;;;;;;11.63;50.29;99149.94;7048671;28;20228;-78
2022/12/28 09:23:46;;;;;;;3.13;2.83;;;;;;;11.56;50.25;99138.25;7048466;28;20228;-80
2022/12/28 09:27:08;;;;;;;3.03;2.73;;;;;;;11.33;50.27;99148.56;7052451;28;20257;-85
2022/12/28 09:30:31;;;;;;;4.30;3.20;;;;;;;11.30;50.89;99146.25;7052804;28;20291;-78
2022/12/28 09:33:59;;;;;;;3.20;2.90;;;;;;;11.58;50.86;99139.72;7060977;28;20646;-77
2022/12/28 09:37:20;;;;;;;4.37;2.60;;;;;;;11.95;49.98;99116.75;7060022;28;20195;-79
2022/12/28 09:40:43;;;;;;;3.30;2.80;;;;;;;12.48;48.25;99129.22;7056345;28;20752;-78
2022/12/28 09:44:39;;;;;;;4.33;2.80;;;;;;;12.63;48.75;99117.13;7032853;28;20250;-78
2022/12/28 09:48:05;;;;;;;3.17;2.80;;;;;;;12.54;48.05;99099.50;7011567;28;20232;-77
2022/12/28 09:51:31;;;;;;;2.80;2.60;;;;;;;12.42;47.97;99130.06;7031193;28;20729;-77
2022/12/28 09:54:53;;;;;;;4.40;2.90;;;;;;;12.43;48.16;99121.75;7030880;28;20729;-77
2022/12/28 09:58:16;;;;;;;3.63;3.13;;;;;;;12.80;47.77;99109.44;7032179;28;20258;-77
2022/12/28 10:01:39;;;;;;;3.13;2.87;;;;;;;12.43;48.18;99113.66;7032224;28;20240;-77
2022/12/28 10:05:02;;;;;;;3.37;3.07;;;;;;;12.95;46.97;99115.41;7031593;28;20730;-77
2022/12/28 10:08:25;;;;;;;4.87;2.63;;;;;;;12.85;46.61;99113.16;7033184;28;20262;-78
2022/12/28 10:11:46;;;;;;;2.90;2.70;;;;;;;13.31;45.99;99105.75;7032214;28;20293;-78
2022/12/28 10:15:11;;;;;;;2.93;2.30;;;;;;;13.09;46.95;99090.81;7031488;28;20653;-77
2022/12/28 10:18:34;;;;;;;3.10;2.80;;;;;;;13.05;46.86;99091.47;7055862;28;20341;-77
2022/12/28 10:21:59;;;;;;;3.50;2.50;;;;;;;13.48;45.98;99100.66;7041895;28;20244;-77
2022/12/28 10:25:23;;;;;;;2.90;2.57;;;;;;;13.30;45.82;99090.53;7048424;28;20358;-78
2022/12/28 10:28:48;;;;;;;2.83;2.53;;;;;;;13.26;46.06;99078.47;7058890;28;20235;-78
2022/12/28 10:32:11;;;;;;;3.40;3.10;;;;;;;13.24;46.47;99082.44;7035708;28;20716;-79
2022/12/28 10:35:36;;;;;;;3.03;2.70;;;;;;;13.42;45.89;99056.31;7034758;28;20678;-78
2022/12/28 10:38:59;;;;;;;3.00;2.70;;;;;;;13.50;45.86;99069.59;7032278;28;20224;-77
2022/12/28 10:42:24;;;;;;;3.20;2.90;;;;;;;13.24;46.18;99031.84;7031475;28;20645;-78
2022/12/28 10:45:49;;;;;;;2.90;2.67;;;;;;;13.51;46.23;99046.06;7050804;28;20211;-78
2022/12/28 10:49:13;;;;;;;3.53;2.57;;;;;;;13.60;45.88;99050.16;7053956;28;20235;-78
2022/12/28 10:52:35;;;;;;;4.00;2.73;;;;;;;13.77;45.66;99054.00;7060584;28;20212;-78
2022/12/28 10:56:23;;;;;;;4.20;3.10;;;;;;;13.94;45.63;99019.88;7050269;28;20348;-78
2022/12/28 10:59:45;;;;;;;2.80;2.57;;;;;;;14.11;45.25;99019.09;7028400;28;20281;-77
2022/12/28 11:03:17;;;;;;;4.27;2.70;;;;;;;13.97;45.97;99039.25;7031664;28;20283;-76
2022/12/28 11:06:52;;;;;;;3.20;2.90;;;;;;;14.27;45.34;99032.13;7037027;28;20207;-77
2022/12/28 11:10:24;;;;;;;3.17;2.57;;;;;;;14.23;44.57;99025.47;7058564;28;20218;-76
2022/12/28 11:13:51;;;;;;;4.63;3.00;;;;;;;14.18;45.33;99016.34;7051239;28;20672;-77
2022/12/28 11:17:17;;;;;;;4.40;3.33;;;;;;;14.34;45.15;99027.47;7046870;28;20804;-77
2022/12/28 11:20:41;;;;;;;3.40;3.20;;;;;;;14.47;44.05;99011.06;7053666;28;21993;-78
2022/12/28 11:24:04;;;;;;;4.00;3.20;;;;;;;14.34;45.05;98977.81;7058203;28;20279;-77
2022/12/28 11:27:28;;;;;;;4.20;3.20;;;;;;;14.54;45.31;99009.13;7040366;28;20671;-77
2022/12/28 11:30:52;;;;;;;4.30;3.17;;;;;;;15.12;44.02;98974.16;7044593;28;20288;-77
2022/12/28 11:34:17;;;;;;;3.50;3.20;;;;;;;15.14;43.83;98985.59;7047799;28;20197;-80
2022/12/28 11:37:48;;;;;;;3.70;3.30;;;;;;;15.34;42.95;98976.16;7048518;28;20610;-78
2022/12/28 11:41:11;;;;;;;3.60;3.13;;;;;;;15.45;42.55;98963.69;7045842;28;20224;-77
2022/12/28 11:44:50;;;;;;;4.83;2.97;;;;;;;14.92;43.41;98973.59;7030089;28;20207;-77
2022/12/28 11:48:48;;;;;;;2.97;2.70;;;;;;;14.97;43.21;98963.69;7034811;28;20194;-77
2022/12/28 11:52:45;;;;;;;4.40;2.97;;;;;;;15.14;43.45;98964.72;7034689;28;20232;-76
2022/12/28 11:56:07;;;;;;;3.80;2.70;;;;;;;15.47;42.86;98966.97;7041271;28;20231;-76
2022/12/28 11:59:30;;;;;;;3.67;3.30;;;;;;;15.96;42.26;98958.44;7037469;28;20218;-76
2022/12/28 12:02:55;;;;;;;4.40;2.80;;;;;;;16.42;40.67;98951.13;7048394;28;20574;-77
2022/12/28 12:06:17;;;;;;;3.57;2.80;;;;;;;16.17;41.58;98936.91;7036546;28;20202;-78
2022/12/28 12:09:42;;;;;;;3.53;2.73;;;;;;;16.37;40.59;98931.09;7042563;28;20273;-78
2022/12/28 12:13:37;;;;;;;3.90;2.50;;;;;;;16.05;41.41;98925.19;7069350;27;20206;-78
2022/12/28 12:17:03;;;;;;;2.73;2.33;;;;;;;16.11;41.76;98924.25;7048945;27;20656;-78
2022/12/28 12:20:42;;;;;;;2.87;2.50;;;;;;;16.04;41.13;98918.13;7072356;27;20264;-77
2022/12/28 12:24:18;;;;;;;2.70;2.50;;;;;;;16.50;40.74;98915.38;7039799;28;20205;-77
2022/12/28 12:27:43;;;;;;;3.67;2.53;;;;;;;16.66;40.64;98906.47;7036535;28;20679;-77
2022/12/28 12:31:07;;;;;;;3.40;3.10;;;;;;;16.42;39.97;98917.63;7052998;28;20245;-79
2022/12/28 12:34:39;;;;;;;2.23;2.10;;;;;;;16.36;40.89;98911.22;7060448;28;20274;-78
2022/12/28 12:38:05;;;;;;;3.10;2.40;;;;;;;16.31;40.19;98910.28;7054106;28;20227;-76
2022/12/28 12:41:32;;;;;;;5.00;2.50;;;;;;;16.32;40.73;98907.31;7050029;28;20290;-76
2022/12/28 12:44:57;;;;;;;3.20;2.37;;;;;;;16.72;39.49;98897.31;7041752;28;20338;-76
2022/12/28 12:48:31;;;;;;;4.00;2.40;;;;;;;16.67;39.94;98886.31;7033554;28;20213;-78
2022/12/28 12:52:00;;;;;;;6.63;2.30;;;;;;;16.23;40.72;98886.16;7048437;28;20606;-77
2022/12/28 12:55:33;;;;;;;2.53;2.27;;;;;;;16.16;40.31;98882.75;7057543;28;20205;-77
2022/12/28 12:59:02;;;;;;;2.90;2.10;;;;;;;15.86;40.64;98882.06;7061572;28;20254;-77
2022/12/28 13:02:33;;;;;;;2.30;2.10;;;;;;;16.01;40.76;98874.25;7061467;28;20193;-77
2022/12/28 13:05:57;;;;;;;2.30;2.10;;;;;;;15.52;41.13;98858.41;7060714;27;20676;-77
2022/12/28 13:09:19;;;;;;;2.87;2.20;;;;;;;15.17;41.63;98844.72;7061840;28;20299;-82
2022/12/28 13:12:41;;;;;;;5.80;2.27;;;;;;;15.32;42.02;98866.03;7039344;28;20322;-76
2022/12/28 13:16:09;;;;;;;4.07;2.47;;;;;;;15.27;42.15;98860.47;7060331;27;20204;-77
2022/12/28 13:19:30;;;;;;;6.40;2.00;;;;;;;15.09;42.26;98850.50;7061320;28;20317;-77
2022/12/28 13:22:53;;;;;;;2.97;2.50;;;;;;;15.06;42.56;98858.31;7057217;28;20344;-78
2022/12/28 13:26:15;;;;;;;2.80;2.50;;;;;;;14.99;42.55;98846.72;7058289;28;20201;-77
2022/12/28 13:29:39;;;;;;;3.10;2.57;;;;;;;15.14;42.72;98850.66;7060369;28;20707;-77
2022/12/28 13:33:02;;;;;;;3.47;2.40;;;;;;;15.10;42.23;98832.34;7060185;28;20230;-77
2022/12/28 13:36:23;;;;;;;3.10;2.30;;;;;;;14.98;42.90;98842.34;7060209;28;20207;-78
2022/12/28 13:39:46;;;;;;;2.37;2.13;;;;;;;14.84;42.94;98840.88;7060508;28;20684;-75
2022/12/28 13:43:39;;;;;;;2.70;2.50;;;;;;;15.14;42.49;98837.06;7061196;28;20236;-76
2022/12/28 13:47:08;;;;;;;2.93;2.40;;;;;;;15.08;42.75;98843.44;7032355;28;20212;-77
2022/12/28 13:50:33;;;;;;;2.40;2.20;;;;;;;15.08;42.86;98837.16;7047988;27;20320;-77
2022/12/28 13:53:57;;;;;;;2.83;2.43;;;;;;;14.82;43.48;98799.56;7064536;27;20295;-77
2022/12/28 13:57:19;;;;;;;2.60;2.40;;;;;;;14.78;43.70;98828.22;7058402;27;20267;-77
2022/12/28 14:00:44;;;;;;;3.80;3.50;;;;;;;14.78;43.60;98806.50;7057785;28;20304;-77
2022/12/28 14:04:08;;;;;;;4.83;3.67;;;;;;;14.95;43.49;98831.94;7059487;28;20295;-77
2022/12/28 14:07:30;;;;;;;2.77;2.20;;;;;;;14.79;43.95;98816.31;7055504;28;20266;-77
2022/12/28 14:10:52;;;;;;;2.57;2.33;;;;;;;14.62;43.89;98827.00;7065810;27;20744;-77
2022/12/28 14:14:14;;;;;;;2.47;2.27;;;;;;;14.69;44.47;98818.78;7062955;27;20291;-77
2022/12/28 14:17:37;;;;;;;3.77;2.90;;;;;;;14.76;44.01;98819.50;7038167;28;20209;-76
2022/12/28 14:20:58;;;;;;;4.67;2.77;;;;;;;14.60;44.43;98815.56;7047696;27;20286;-76
2022/12/28 14:24:21;;;;;;;3.20;2.33;;;;;;;14.75;43.62;98812.41;7059960;27;20292;-76
2022/12/28 14:27:45;;;;;;;2.70;2.47;;;;;;;14.67;44.11;98807.31;7061303;27;20261;-77
2022/12/28 14:31:09;;;;;;;4.60;2.63;;;;;;;14.81;43.79;98808.78;7080455;27;20268;-77
2022/12/28 14:34:32;;;;;;;4.40;2.60;;;;;;;14.69;43.94;98806.00;7062715;27;20257;-76
2022/12/28 14:37:55;;;;;;;2.33;2.23;;;;;;;14.70;44.08;98794.09;7076222;27;20339;-77
2022/12/28 14:41:22;;;;;;;3.10;2.60;;;;;;;14.53;44.46;98795.84;7048740;27;20323;-78
2022/12/28 14:44:44;;;;;;;3.07;2.47;;;;;;;14.54;44.28;98791.22;7050735;28;20293;-77
2022/12/28 14:48:22;;;;;;;2.60;2.00;;;;;;;14.52;44.17;98771.63;7044807;28;20231;-77
2022/12/28 14:51:43;;;;;;;2.47;2.27;;;;;;;14.53;43.94;98779.56;7050005;28;20235;-78
2022/12/28 14:55:23;;;;;;;3.07;2.43;;;;;;;14.35;44.18;98768.75;7030185;28;20276;-77
2022/12/28 14:58:48;;;;;;;2.33;2.00;;;;;;;14.41;44.23;98781.41;7029899;28;20208;-79
2022/12/28 15:02:41;;;;;;;2.63;2.17;;;;;;;14.62;43.91;98767.28;7030316;28;20263;-77
2022/12/28 15:06:03;;;;;;;4.23;2.53;;;;;;;14.55;43.65;98752.16;6994551;28;20212;-78
2022/12/28 15:09:25;;;;;;;3.10;2.17;;;;;;;14.28;44.42;98750.91;7034977;28;20811;-78
2022/12/28 15:12:46;;;;;;;2.57;2.30;;;;;;;14.29;44.28;98766.13;7031706;28;20225;-77
2022/12/28 15:16:12;;;;;;;2.33;2.13;;;;;;;14.45;44.40;98770.91;7029174;28;20286;-77
2022/12/28 15:19:33;;;;;;;3.73;2.60;;;;;;;14.53;43.93;98765.16;7034892;28;20222;-77
2022/12/28 15:22:55;;;;;;;3.37;2.40;;;;;;;14.47;43.87;98752.50;7030067;28;20254;-78
2022/12/28 15:26:17;;;;;;;5.80;2.43;;;;;;;14.67;43.74;98772.03;7067282;27;20227;-77
2022/12/28 15:29:41;;;;;;;3.60;2.50;;;;;;;14.75;43.33;98755.44;7063645;27;20312;-77
2022/12/28 15:33:05;;;;;;;3.10;2.67;;;;;;;14.70;43.59;98766.94;7057158;28;20232;-78
2022/12/28 15:36:27;;;;;;;3.83;2.67;;;;;;;14.67;43.51;98751.16;7038170;28;20205;-79
2022/12/28 15:39:49;;;;;;;3.23;2.57;;;;;;;14.77;43.51;98761.44;7030000;28;20223;-78
2022/12/28 15:43:10;;;;;;;4.43;2.43;;;;;;;14.57;43.93;98761.72;7031714;28;20241;-77
2022/12/28 15:46:32;;;;;;;2.63;2.40;;;;;;;14.00;44.75;98742.50;7050275;28;20766;-77
2022/12/28 15:49:56;;;;;;;3.17;2.70;;;;;;;14.32;44.38;98757.50;7053904;28;20687;-77
2022/12/28 15:53:18;;;;;;;2.60;2.40;;;;;;;14.24;44.14;98739.69;7060593;28;20228;-80
2022/12/28 15:56:41;;;;;;;3.03;2.50;;;;;;;14.36;44.14;98748.72;7060002;28;20839;-76
2022/12/28 16:00:03;;;;;;;4.23;2.70;;;;;;;14.37;44.53;98750.34;7060183;27;20219;-76
2022/12/28 16:03:25;;;;;;;4.00;3.03;;;;;;;14.34;44.52;98734.53;7043399;28;20254;-78
2022/12/28 16:06:47;;;;;;;3.73;3.40;;;;;;;14.14;45.06;98743.97;7032429;28;20291;-76
2022/12/28 16:10:09;;;;;;;3.67;3.00;;;;;;;13.98;45.33;98744.63;7033274;28;20285;-75
2022/12/28 16:13:31;;;;;;;4.03;3.20;;;;;;;13.94;45.68;98746.13;7032862;28;20641;-76
2022/12/28 16:16:52;;;;;;;3.67;3.37;;;;;;;13.73;46.09;98741.16;7032746;28;20257;-77
2022/12/28 16:20:14;;;;;;;4.80;4.00;;;;;;;13.59;46.33;98729.66;7032975;28;20385;-76
2022/12/28 16:23:38;;;;;;;4.90;3.30;;;;;;;13.67;46.03;98732.06;7047672;28;20246;-77
2022/12/28 16:27:00;;;;;;;4.03;3.37;;;;;;;13.56;46.10;98719.25;7059186;28;20287;-78
2022/12/28 16:30:21;;;;;;;3.93;3.53;;;;;;;13.48;46.66;98718.75;7060680;28;20345;-77
2022/12/28 16:33:42;;;;;;;3.57;3.23;;;;;;;13.35;46.63;98719.72;7059768;28;20361;-78
2022/12/28 16:37:04;;;;;;;4.80;3.10;;;;;;;13.35;47.00;98716.19;7061189;28;20649;-78